Time;durP1;ratioP1;P1;durP2;ratioP2;P2;SDS_P1;SDS_P2;PMS_P1;PMS_P2;Temp;Humidity;BMP_temperature;BMP_pressure;BME280_temperature;BME280_humidity;BME280_pressure;Samples;Min_cycle;Max_cycle;Signal;HPM_P1;HPM_P2
2023/04/20 00:01:53;;;;;;;;;;;8.80;79.90;;;;;;5042025;28;20315;-78
2023/04/20 00:04:20;;;;;;;;;;;8.80;79.90;;;;;;5037934;28;19932;-78
2023/04/20 00:06:46;;;;;;;;;;;8.80;79.90;;;;;;5039198;28;19932;-78
2023/04/20 00:09:14;;;;;;;;;;;8.80;79.90;;;;;;5043679;28;19983;-78
2023/04/20 00:11:40;;;;;;;;;;;8.70;79.90;;;;;;5042059;28;21023;-78
2023/04/20 00:14:07;;;;;;;;;;;8.70;79.90;;;;;;5040839;28;19936;-78
2023/04/20 00:16:35;;;;;;;;;;;8.70;80.00;;;;;;5038742;28;19936;-78
2023/04/20 00:19:01;;;;;;;;;;;8.70;80.00;;;;;;5038956;28;19936;-78
2023/04/20 00:21:28;;;;;;;;;;;8.60;80.00;;;;;;5039892;28;19929;-78
2023/04/20 00:23:54;;;;;;;;;;;8.60;80.00;;;;;;5038655;28;19939;-78
2023/04/20 00:26:21;;;;;;;;;;;8.60;80.00;;;;;;5038709;28;19935;-78
2023/04/20 00:28:50;;;;;;;;;;;8.50;80.00;;;;;;5039681;28;19928;-78
2023/04/20 00:31:16;;;;;;;;;;;8.50;80.10;;;;;;5038759;28;19929;-78
2023/04/20 00:33:44;;;;;;;;;;;8.40;80.00;;;;;;5040229;28;19994;-78
2023/04/20 00:36:11;;;;;;;;;;;8.50;80.10;;;;;;5034326;28;19936;-78
2023/04/20 00:38:37;;;;;;;;;;;8.50;81.00;;;;;;5040779;28;19947;-79
2023/04/20 00:41:04;;;;;;;;;;;8.40;80.20;;;;;;5037410;28;20003;-79
2023/04/20 00:43:30;;;;;;;;;;;8.40;80.20;;;;;;5034586;28;19959;-78
2023/04/20 00:45:57;;;;;;;;;;;8.30;80.20;;;;;;5035519;28;19931;-77
2023/04/20 00:48:24;;;;;;;;;;;8.40;80.30;;;;;;5030358;28;19932;-78
2023/04/20 00:50:52;;;;;;;;;;;8.30;80.30;;;;;;5042367;28;20645;-79
2023/04/20 00:53:19;;;;;;;;;;;8.30;80.40;;;;;;5035320;28;21256;-77
2023/04/20 00:55:45;;;;;;;;;;;8.30;80.40;;;;;;5033982;28;19963;-79
2023/04/20 00:58:12;;;;;;;;;;;8.30;80.50;;;;;;5038124;28;19933;-78
2023/04/20 01:00:39;;;;;;;;;;;8.20;80.50;;;;;;5037751;28;19928;-78
2023/04/20 01:03:06;;;;;;;;;;;8.20;80.50;;;;;;5038458;28;19933;-77
2023/04/20 01:05:33;;;;;;;;;;;8.10;80.50;;;;;;5033852;28;20625;-79
2023/04/20 01:08:01;;;;;;;;;;;8.10;80.50;;;;;;5039204;28;19933;-79
2023/04/20 01:10:28;;;;;;;;;;;8.10;80.60;;;;;;5037101;28;19929;-79
2023/04/20 01:12:54;;;;;;;;;;;8.10;80.60;;;;;;5037704;28;19936;-77
2023/04/20 01:15:21;;;;;;;;;;;8.00;80.60;;;;;;5033722;28;19931;-80
2023/04/20 01:17:48;;;;;;;;;;;8.00;80.60;;;;;;5034832;28;19932;-78
2023/04/20 01:20:15;;;;;;;;;;;8.00;80.70;;;;;;5030996;28;19932;-77
2023/04/20 01:22:46;;;;;;;;;;;7.90;80.70;;;;;;5037416;28;19933;-76
2023/04/20 01:25:13;;;;;;;;;;;7.90;80.60;;;;;;5036432;28;19933;-77
2023/04/20 01:27:40;;;;;;;;;;;8.00;80.80;;;;;;5038376;28;20040;-77
2023/04/20 01:30:07;;;;;;;;;;;7.90;80.80;;;;;;5034572;28;19951;-78
2023/04/20 01:32:34;;;;;;;;;;;7.90;80.80;;;;;;5037341;28;19932;-78
2023/04/20 01:35:00;;;;;;;;;;;7.80;80.70;;;;;;5033679;28;19935;-78
2023/04/20 01:37:27;;;;;;;;;;;7.80;81.50;;;;;;5034121;28;19936;-77
2023/04/20 01:39:55;;;;;;;;;;;7.80;80.90;;;;;;5035565;28;19940;-79
2023/04/20 01:42:22;;;;;;;;;;;7.80;80.90;;;;;;5036637;28;20418;-78
2023/04/20 01:44:48;;;;;;;;;;;7.70;80.80;;;;;;5037241;28;19947;-77
2023/04/20 01:47:15;;;;;;;;;;;7.70;80.80;;;;;;5034956;28;19929;-79
2023/04/20 01:49:41;;;;;;;;;;;7.70;80.90;;;;;;5036911;28;19934;-79
2023/04/20 01:52:08;;;;;;;;;;;7.60;80.80;;;;;;5036681;28;20009;-78
2023/04/20 01:54:36;;;;;;;;;;;7.60;80.80;;;;;;5038110;28;19933;-77
2023/04/20 01:57:04;;;;;;;;;;;7.60;80.80;;;;;;5036813;28;19935;-78
2023/04/20 01:59:30;;;;;;;;;;;7.60;80.80;;;;;;5041536;28;19932;-78
2023/04/20 02:01:57;;;;;;;;;;;7.60;80.90;;;;;;5038306;28;19933;-78
2023/04/20 02:04:24;;;;;;;;;;;7.50;80.90;;;;;;5035928;28;19929;-78
2023/04/20 02:06:50;;;;;;;;;;;7.50;81.00;;;;;;5034069;28;20295;-78
2023/04/20 02:09:17;;;;;;;;;;;7.50;81.00;;;;;;5037960;28;19940;-78
2023/04/20 02:11:43;;;;;;;;;;;7.40;81.70;;;;;;5043718;28;19932;-78
2023/04/20 02:14:11;;;;;;;;;;;7.40;81.00;;;;;;5042534;28;19932;-78
2023/04/20 02:16:38;;;;;;;;;;;7.40;81.10;;;;;;5040855;28;19933;-78
2023/04/20 02:19:05;;;;;;;;;;;7.40;81.10;;;;;;5042008;28;19936;-77
2023/04/20 02:21:31;;;;;;;;;;;7.40;81.20;;;;;;5036624;28;20386;-77
2023/04/20 02:23:58;;;;;;;;;;;7.40;81.20;;;;;;5036292;28;19939;-78
2023/04/20 02:26:24;;;;;;;;;;;7.30;81.20;;;;;;5041222;28;19936;-78
2023/04/20 02:28:51;;;;;;;;;;;7.30;81.20;;;;;;5042320;28;19940;-79
2023/04/20 02:31:19;;;;;;;;;;;7.30;81.20;;;;;;5040880;28;19966;-78
2023/04/20 02:33:46;;;;;;;;;;;7.20;81.20;;;;;;5043111;28;19925;-79
2023/04/20 02:36:13;;;;;;;;;;;7.30;81.30;;;;;;5039220;28;19968;-79
2023/04/20 02:38:39;;;;;;;;;;;7.20;81.30;;;;;;5040613;28;19939;-78
2023/04/20 02:41:06;;;;;;;;;;;7.20;81.30;;;;;;5043787;28;19924;-78
2023/04/20 02:43:35;;;;;;;;;;;7.20;81.40;;;;;;5042135;28;19939;-81
2023/04/20 02:46:01;;;;;;;;;;;7.10;81.40;;;;;;5039198;28;19978;-79
2023/04/20 02:48:29;;;;;;;;;;;7.10;81.40;;;;;;5044117;28;19940;-77
2023/04/20 02:50:56;;;;;;;;;;;7.10;81.50;;;;;;5042024;28;19935;-77
2023/04/20 02:53:22;;;;;;;;;;;7.10;81.50;;;;;;5038542;28;20048;-79
2023/04/20 02:55:49;;;;;;;;;;;7.10;81.50;;;;;;5041182;28;19936;-77
2023/04/20 02:58:16;;;;;;;;;;;7.00;81.40;;;;;;5043794;28;19936;-78
2023/04/20 03:00:43;;;;;;;;;;;7.00;81.50;;;;;;5049321;28;19936;-78
2023/04/20 03:03:09;;;;;;;;;;;7.00;81.50;;;;;;5043681;28;20294;-78
2023/04/20 03:05:37;;;;;;;;;;;6.90;81.50;;;;;;5039374;28;19932;-77
2023/04/20 03:08:06;;;;;;;;;;;6.90;81.50;;;;;;5038822;28;19936;-77
2023/04/20 03:10:32;;;;;;;;;;;6.90;81.50;;;;;;5045081;28;19935;-78
2023/04/20 03:12:59;;;;;;;;;;;6.90;81.60;;;;;;5043581;28;19929;-78
2023/04/20 03:15:25;;;;;;;;;;;6.90;81.60;;;;;;5045716;28;19932;-79
2023/04/20 03:17:52;;;;;;;;;;;6.80;81.60;;;;;;5044593;28;19928;-79
2023/04/20 03:20:18;;;;;;;;;;;6.80;81.60;;;;;;5048130;28;20055;-78
2023/04/20 03:22:46;;;;;;;;;;;6.80;81.70;;;;;;5042567;28;19932;-76
2023/04/20 03:25:13;;;;;;;;;;;6.80;81.70;;;;;;5040028;28;19936;-77
2023/04/20 03:27:39;;;;;;;;;;;6.70;81.70;;;;;;5038340;28;19929;-77
2023/04/20 03:30:07;;;;;;;;;;;6.70;81.80;;;;;;5037729;28;19935;-79
2023/04/20 03:32:33;;;;;;;;;;;6.70;81.90;;;;;;5037976;28;19972;-78
2023/04/20 03:35:00;;;;;;;;;;;6.70;81.80;;;;;;5037435;28;19936;-78
2023/04/20 03:37:26;;;;;;;;;;;6.70;81.80;;;;;;5037510;28;19932;-77
2023/04/20 03:39:54;;;;;;;;;;;6.60;81.90;;;;;;5040727;28;19929;-78
2023/04/20 03:42:21;;;;;;;;;;;6.60;81.90;;;;;;5038726;28;19936;-80
2023/04/20 03:44:47;;;;;;;;;;;6.60;81.90;;;;;;5041521;28;19929;-77
2023/04/20 03:47:14;;;;;;;;;;;6.50;81.90;;;;;;5038397;28;20568;-78
2023/04/20 03:49:40;;;;;;;;;;;6.60;82.00;;;;;;5041796;28;20635;-77
2023/04/20 03:52:07;;;;;;;;;;;6.50;82.00;;;;;;5040336;28;20462;-77
2023/04/20 03:54:34;;;;;;;;;;;6.50;82.00;;;;;;5040253;28;19929;-78
2023/04/20 03:57:02;;;;;;;;;;;6.50;82.00;;;;;;5038751;28;19929;-78
2023/04/20 03:59:29;;;;;;;;;;;6.40;82.00;;;;;;5043229;28;19932;-77
2023/04/20 04:01:55;;;;;;;;;;;6.40;82.10;;;;;;5044240;28;19932;-76
2023/04/20 04:04:22;;;;;;;;;;;6.40;82.10;;;;;;5038241;28;19956;-77
2023/04/20 04:06:49;;;;;;;;;;;6.40;82.10;;;;;;5039046;28;19933;-77
2023/04/20 04:09:15;;;;;;;;;;;6.40;82.20;;;;;;5042794;28;19928;-77
2023/04/20 04:11:42;;;;;;;;;;;6.30;82.20;;;;;;5046314;28;19971;-78
2023/04/20 04:14:10;;;;;;;;;;;6.40;82.30;;;;;;5043027;28;20385;-78
2023/04/20 04:16:36;;;;;;;;;;;6.30;82.20;;;;;;5027556;28;19929;-77
2023/04/20 04:19:03;;;;;;;;;;;6.30;82.20;;;;;;5037823;28;19935;-80
2023/04/20 04:21:30;;;;;;;;;;;6.30;82.30;;;;;;5035515;28;19931;-81
2023/04/20 04:23:56;;;;;;;;;;;6.30;82.30;;;;;;5036492;28;19928;-81
2023/04/20 04:26:23;;;;;;;;;;;6.30;82.40;;;;;;5036414;28;20299;-75
2023/04/20 04:28:50;;;;;;;;;;;6.20;82.40;;;;;;5031160;28;19928;-78
2023/04/20 04:31:20;;;;;;;;;;;6.20;82.40;;;;;;5037605;28;20863;-77
2023/04/20 04:33:47;;;;;;;;;;;6.20;82.50;;;;;;5035711;28;19928;-77
2023/04/20 04:36:14;;;;;;;;;;;6.20;82.60;;;;;;5036051;28;19936;-76
2023/04/20 04:38:41;;;;;;;;;;;6.20;82.60;;;;;;5043274;28;19956;-77
2023/04/20 04:41:08;;;;;;;;;;;6.10;82.60;;;;;;5038796;28;19928;-79
2023/04/20 04:43:35;;;;;;;;;;;6.10;82.70;;;;;;5038442;28;19940;-78
2023/04/20 04:46:06;;;;;;;;;;;6.10;82.70;;;;;;5039507;28;20047;-78
2023/04/20 04:48:35;;;;;;;;;;;6.10;82.80;;;;;;5040039;28;19928;-78
2023/04/20 04:51:02;;;;;;;;;;;6.10;82.80;;;;;;5040565;28;19975;-79
2023/04/20 04:53:28;;;;;;;;;;;6.10;82.90;;;;;;5035210;28;19928;-76
2023/04/20 04:55:55;;;;;;;;;;;6.10;82.80;;;;;;5038154;28;19952;-78
2023/04/20 04:58:21;;;;;;;;;;;5.80;83.10;;;;;;5037094;28;19940;-76
2023/04/20 05:00:48;;;;;;;;;;;5.60;84.10;;;;;;5040713;28;20108;-76
2023/04/20 05:03:15;;;;;;;;;;;5.60;84.50;;;;;;5036648;28;19928;-76
2023/04/20 05:05:42;;;;;;;;;;;5.60;84.60;;;;;;5039739;28;20640;-77
2023/04/20 05:08:10;;;;;;;;;;;5.60;84.60;;;;;;5039523;28;20523;-77
2023/04/20 05:10:36;;;;;;;;;;;5.70;84.50;;;;;;5040033;28;20020;-76
2023/04/20 05:13:03;;;;;;;;;;;5.70;85.20;;;;;;5037420;28;19948;-77
2023/04/20 05:15:29;;;;;;;;;;;5.70;84.30;;;;;;5038473;28;20430;-77
2023/04/20 05:17:56;;;;;;;;;;;5.70;84.20;;;;;;5033171;28;19976;-78
2023/04/20 05:20:22;;;;;;;;;;;5.80;84.20;;;;;;5036985;28;19932;-77
2023/04/20 05:22:50;;;;;;;;;;;5.80;84.10;;;;;;5036814;28;19940;-78
2023/04/20 05:25:18;;;;;;;;;;;5.80;84.10;;;;;;5036658;28;19936;-77
2023/04/20 05:27:45;;;;;;;;;;;5.80;84.00;;;;;;5035356;28;19929;-77
2023/04/20 05:30:11;;;;;;;;;;;5.80;84.00;;;;;;5032564;28;19929;-77
2023/04/20 05:32:38;;;;;;;;;;;5.80;84.70;;;;;;5036914;28;19929;-76
2023/04/20 05:35:05;;;;;;;;;;;5.80;83.90;;;;;;5031250;28;19929;-79
2023/04/20 05:37:32;;;;;;;;;;;5.80;83.90;;;;;;5034297;28;19928;-77
2023/04/20 05:40:00;;;;;;;;;;;5.80;83.90;;;;;;5033559;28;19936;-77
2023/04/20 05:42:26;;;;;;;;;;;5.80;83.90;;;;;;5040553;28;19951;-77
2023/04/20 05:44:53;;;;;;;;;;;5.80;83.90;;;;;;5035832;28;19933;-77
2023/04/20 05:47:19;;;;;;;;;;;5.80;83.90;;;;;;5040537;28;20328;-78
2023/04/20 05:49:46;;;;;;;;;;;5.80;83.90;;;;;;5042720;28;19935;-77
2023/04/20 05:52:12;;;;;;;;;;;5.80;83.90;;;;;;5032510;28;19932;-76
2023/04/20 05:54:39;;;;;;;;;;;5.80;83.90;;;;;;5036370;28;19928;-77
2023/04/20 05:57:07;;;;;;;;;;;5.80;84.00;;;;;;5035639;28;19936;-77
2023/04/20 05:59:33;;;;;;;;;;;5.80;84.10;;;;;;5036066;28;19936;-77
2023/04/20 06:02:00;;;;;;;;;;;5.70;84.00;;;;;;5041400;28;19939;-79
2023/04/20 06:04:27;;;;;;;;;;;5.70;84.00;;;;;;5041556;28;19964;-77
2023/04/20 06:06:53;;;;;;;;;;;5.70;84.10;;;;;;5044559;28;19929;-78
2023/04/20 06:09:20;;;;;;;;;;;5.70;84.10;;;;;;5043887;28;20896;-77
2023/04/20 06:11:46;;;;;;;;;;;5.70;84.20;;;;;;5037952;28;20291;-77
2023/04/20 06:14:14;;;;;;;;;;;5.70;84.20;;;;;;5041213;28;19929;-78
2023/04/20 06:16:41;;;;;;;;;;;5.70;84.30;;;;;;5040329;28;20507;-77
2023/04/20 06:19:08;;;;;;;;;;;5.70;84.30;;;;;;5039037;28;20045;-77
2023/04/20 06:21:35;;;;;;;;;;;5.70;84.20;;;;;;5037724;28;19950;-77
2023/04/20 06:24:01;;;;;;;;;;;5.70;84.30;;;;;;5033915;28;19929;-77
2023/04/20 06:26:28;;;;;;;;;;;5.70;84.30;;;;;;5048583;28;19932;-77
2023/04/20 06:28:54;;;;;;;;;;;5.70;84.30;;;;;;5037453;28;19936;-78
2023/04/20 06:31:22;;;;;;;;;;;5.70;84.30;;;;;;5036034;28;19929;-78
2023/04/20 06:33:49;;;;;;;;;;;5.70;84.30;;;;;;5032667;28;19936;-77
2023/04/20 06:36:15;;;;;;;;;;;5.70;84.40;;;;;;5031953;28;20388;-78
2023/04/20 06:38:42;;;;;;;;;;;5.70;84.40;;;;;;5037511;28;19948;-78
2023/04/20 06:41:09;;;;;;;;;;;5.70;84.40;;;;;;5041686;28;20419;-77
2023/04/20 06:43:35;;;;;;;;;;;5.70;84.40;;;;;;5026673;28;19925;-76
2023/04/20 06:46:02;;;;;;;;;;;5.70;84.40;;;;;;5031345;28;19928;-76
2023/04/20 06:48:30;;;;;;;;;;;5.70;84.40;;;;;;5034609;28;19929;-77
2023/04/20 06:50:56;;;;;;;;;;;5.70;84.50;;;;;;5031117;28;19998;-77
2023/04/20 06:53:23;;;;;;;;;;;5.70;84.50;;;;;;5029777;28;20425;-77
2023/04/20 06:55:50;;;;;;;;;;;5.80;84.60;;;;;;5031596;28;19936;-77
2023/04/20 06:58:16;;;;;;;;;;;5.70;84.60;;;;;;5035246;28;19933;-77
2023/04/20 07:00:43;;;;;;;;;;;5.80;84.70;;;;;;5030156;28;19933;-77
2023/04/20 07:03:09;;;;;;;;;;;5.80;84.80;;;;;;5031224;28;19929;-78
2023/04/20 07:05:37;;;;;;;;;;;5.80;84.80;;;;;;5039662;28;19929;-77
2023/04/20 07:08:04;;;;;;;;;;;5.80;84.80;;;;;;5038604;28;19939;-76
2023/04/20 07:10:30;;;;;;;;;;;5.80;84.80;;;;;;5039972;28;19999;-77
2023/04/20 07:12:57;;;;;;;;;;;5.80;84.90;;;;;;5033551;28;19994;-77
2023/04/20 07:15:24;;;;;;;;;;;5.80;85.00;;;;;;5042654;28;19936;-76
2023/04/20 07:17:50;;;;;;;;;;;5.80;85.10;;;;;;5035659;28;19935;-78
2023/04/20 07:20:17;;;;;;;;;;;5.90;85.20;;;;;;5033122;28;20303;-77
2023/04/20 07:22:46;;;;;;;;;;;5.90;85.20;;;;;;5048139;28;19935;-77
2023/04/20 07:25:12;;;;;;;;;;;6.00;85.40;;;;;;5038586;28;19929;-78
2023/04/20 07:27:40;;;;;;;;;;;6.00;85.40;;;;;;5036669;28;20322;-77
2023/04/20 07:30:07;;;;;;;;;;;6.00;85.40;;;;;;5036632;28;19932;-77
2023/04/20 07:32:35;;;;;;;;;;;6.00;85.40;;;;;;5034831;28;19935;-77
2023/04/20 07:35:02;;;;;;;;;;;6.00;85.30;;;;;;5039006;28;20032;-75
2023/04/20 07:37:30;;;;;;;;;;;6.00;85.30;;;;;;5035936;28;19928;-77
2023/04/20 07:39:58;;;;;;;;;;;6.10;85.50;;;;;;5036442;28;19928;-77
2023/04/20 07:42:24;;;;;;;;;;;6.10;85.50;;;;;;5035626;28;19929;-77
2023/04/20 07:44:51;;;;;;;;;;;6.10;85.50;;;;;;5030580;28;20206;-78
2023/04/20 07:47:18;;;;;;;;;;;6.20;85.70;;;;;;5035928;28;19940;-78
2023/04/20 07:49:44;;;;;;;;;;;6.20;85.70;;;;;;5038977;28;19933;-80
2023/04/20 07:52:11;;;;;;;;;;;6.20;85.70;;;;;;5034553;28;19941;-76
2023/04/20 07:54:38;;;;;;;;;;;6.20;85.80;;;;;;5027620;28;19932;-76
2023/04/20 07:57:08;;;;;;;;;;;6.30;86.00;;;;;;5031052;28;20038;-77
2023/04/20 07:59:34;;;;;;;;;;;6.30;85.80;;;;;;5029806;28;19983;-78
2023/04/20 08:02:01;;;;;;;;;;;6.30;85.70;;;;;;5035568;28;19940;-78
2023/04/20 08:04:28;;;;;;;;;;;6.30;85.70;;;;;;5038361;28;20377;-79
2023/04/20 08:06:54;;;;;;;;;;;6.40;85.80;;;;;;5040153;28;19929;-79
2023/04/20 08:09:21;;;;;;;;;;;6.40;85.80;;;;;;5033344;28;19929;-78
2023/04/20 08:11:48;;;;;;;;;;;6.40;85.70;;;;;;5034751;28;19928;-78
2023/04/20 08:14:16;;;;;;;;;;;6.50;85.80;;;;;;5041693;28;19932;-79
2023/04/20 08:16:42;;;;;;;;;;;6.50;85.80;;;;;;5039065;28;19936;-78
2023/04/20 08:19:09;;;;;;;;;;;6.50;86.00;;;;;;5038978;28;19933;-78
2023/04/20 08:21:36;;;;;;;;;;;6.60;86.10;;;;;;5038427;28;20682;-78
2023/04/20 08:24:03;;;;;;;;;;;6.60;86.10;;;;;;5039628;28;19936;-78
2023/04/20 08:26:30;;;;;;;;;;;6.60;86.00;;;;;;5045631;28;20025;-78
2023/04/20 08:28:56;;;;;;;;;;;6.70;85.90;;;;;;5035385;28;19933;-77
2023/04/20 08:31:24;;;;;;;;;;;6.70;85.80;;;;;;5041147;28;20489;-79
2023/04/20 08:33:51;;;;;;;;;;;6.70;85.80;;;;;;5045150;28;20019;-78
2023/04/20 08:36:17;;;;;;;;;;;6.80;85.80;;;;;;5043433;28;20023;-78
2023/04/20 08:38:44;;;;;;;;;;;6.80;85.80;;;;;;5035261;28;19932;-78
2023/04/20 08:41:12;;;;;;;;;;;6.80;85.80;;;;;;5046203;28;21752;-77
2023/04/20 08:43:38;;;;;;;;;;;6.80;85.80;;;;;;5043365;28;20011;-77
2023/04/20 08:46:05;;;;;;;;;;;6.90;85.80;;;;;;5045310;28;19925;-79
2023/04/20 08:48:34;;;;;;;;;;;6.90;85.80;;;;;;5042944;28;19940;-78
2023/04/20 08:51:01;;;;;;;;;;;7.00;85.70;;;;;;5044960;28;19937;-78
2023/04/20 08:53:27;;;;;;;;;;;7.00;85.50;;;;;;5038502;28;19932;-79
2023/04/20 08:55:55;;;;;;;;;;;7.10;85.40;;;;;;5038016;28;19975;-77
2023/04/20 08:58:24;;;;;;;;;;;7.10;85.30;;;;;;5042849;28;19980;-78
2023/04/20 09:00:50;;;;;;;;;;;7.20;85.20;;;;;;5045311;28;19959;-78
2023/04/20 09:03:17;;;;;;;;;;;7.20;85.10;;;;;;5040739;28;19929;-79
2023/04/20 09:05:45;;;;;;;;;;;7.30;85.00;;;;;;5040297;28;19929;-78
2023/04/20 09:08:11;;;;;;;;;;;7.40;84.80;;;;;;5043589;28;19929;-79
2023/04/20 09:10:40;;;;;;;;;;;7.40;84.70;;;;;;5042540;28;19928;-78
2023/04/20 09:13:06;;;;;;;;;;;7.40;84.30;;;;;;5041858;28;19936;-78
2023/04/20 09:15:33;;;;;;;;;;;7.50;84.20;;;;;;5040296;28;19928;-78
2023/04/20 09:17:59;;;;;;;;;;;7.60;84.00;;;;;;5042814;28;19935;-78
2023/04/20 09:20:27;;;;;;;;;;;7.60;84.00;;;;;;5042584;28;20410;-78
2023/04/20 09:22:55;;;;;;;;;;;7.70;83.90;;;;;;5034912;28;19929;-79
2023/04/20 09:25:21;;;;;;;;;;;7.70;83.90;;;;;;5049143;28;19932;-78
2023/04/20 09:27:55;;;;;;;;;;;7.80;83.80;;;;;;5040419;28;19936;-79
2023/04/20 09:30:21;;;;;;;;;;;7.80;83.50;;;;;;5046914;28;19929;-78
2023/04/20 09:32:48;;;;;;;;;;;7.90;83.40;;;;;;5041602;28;19928;-79
2023/04/20 09:35:22;;;;;;;;;;;8.00;83.40;;;;;;5055986;28;19928;-78
2023/04/20 09:37:48;;;;;;;;;;;8.00;83.00;;;;;;5039280;28;19932;-78
2023/04/20 09:40:17;;;;;;;;;;;8.10;82.70;;;;;;5041025;28;19929;-78
2023/04/20 09:42:44;;;;;;;;;;;8.20;82.60;;;;;;5052613;28;19932;-78
2023/04/20 09:45:13;;;;;;;;;;;8.20;82.40;;;;;;5045702;28;19943;-78
2023/04/20 09:47:41;;;;;;;;;;;8.30;82.30;;;;;;5036318;28;20434;-78
2023/04/20 09:50:10;;;;;;;;;;;8.30;82.20;;;;;;5034386;28;19929;-78
2023/04/20 09:52:37;;;;;;;;;;;8.40;82.10;;;;;;5039852;28;19939;-78
2023/04/20 09:55:05;;;;;;;;;;;8.40;82.10;;;;;;5041524;28;19951;-78
2023/04/20 09:57:34;;;;;;;;;;;8.50;82.00;;;;;;5040486;28;19939;-78
2023/04/20 10:00:03;;;;;;;;;;;8.50;81.80;;;;;;5041705;28;19928;-78
2023/04/20 10:02:30;;;;;;;;;;;8.60;81.70;;;;;;5039904;28;20212;-78
2023/04/20 10:04:57;;;;;;;;;;;8.60;81.60;;;;;;5040538;28;19935;-79
2023/04/20 10:07:24;;;;;;;;;;;8.60;81.50;;;;;;5036469;28;19928;-78
2023/04/20 10:10:01;;;;;;;;;;;8.70;81.50;;;;;;5039676;28;19939;-78
2023/04/20 10:12:28;;;;;;;;;;;8.70;81.40;;;;;;5038527;28;19936;-78
2023/04/20 10:14:56;;;;;;;;;;;8.70;81.40;;;;;;5039008;28;19925;-79
2023/04/20 10:17:29;;;;;;;;;;;8.70;81.30;;;;;;5038373;28;20019;-78
2023/04/20 10:19:55;;;;;;;;;;;8.80;81.30;;;;;;5038991;28;19929;-78
2023/04/20 10:22:28;;;;;;;;;;;8.80;81.10;;;;;;5035751;28;20365;-78
2023/04/20 10:24:54;;;;;;;;;;;8.90;81.10;;;;;;5040923;28;20036;-78
2023/04/20 10:27:21;;;;;;;;;;;8.80;81.00;;;;;;5038700;28;19940;-78
2023/04/20 10:29:48;;;;;;;;;;;8.90;81.10;;;;;;5044913;28;19971;-79
2023/04/20 10:32:23;;;;;;;;;;;8.80;81.10;;;;;;5043786;28;19952;-77
2023/04/20 10:35:00;;;;;;;;;;;8.90;81.00;;;;;;5042439;28;20862;-79
2023/04/20 10:37:27;;;;;;;;;;;8.90;81.00;;;;;;5038674;28;19928;-78
2023/04/20 10:39:54;;;;;;;;;;;8.90;81.20;;;;;;5054065;28;19928;-78
2023/04/20 10:42:20;;;;;;;;;;;8.90;81.40;;;;;;5039598;28;19940;-79
2023/04/20 10:44:47;;;;;;;;;;;8.90;81.60;;;;;;5043180;28;19928;-79
2023/04/20 10:47:14;;;;;;;;;;;8.90;81.70;;;;;;5050202;28;19945;-78
2023/04/20 10:49:42;;;;;;;;;;;8.90;82.30;;;;;;5050972;28;19929;-79
2023/04/20 10:52:08;;;;;;;;;;;8.90;82.40;;;;;;5044302;28;19929;-79
2023/04/20 10:54:36;;;;;;;;;;;9.00;82.60;;;;;;5043268;28;19933;-79
2023/04/20 10:57:03;;;;;;;;;;;9.00;82.70;;;;;;5042373;28;20667;-79
2023/04/20 10:59:29;;;;;;;;;;;9.00;82.80;;;;;;5046406;28;19929;-79
2023/04/20 11:01:58;;;;;;;;;;;9.00;83.00;;;;;;5038328;28;20584;-80
2023/04/20 11:04:32;;;;;;;;;;;9.00;83.10;;;;;;5042871;28;20016;-80
2023/04/20 11:07:06;;;;;;;;;;;9.10;83.20;;;;;;5040393;28;20683;-80
2023/04/20 11:09:33;;;;;;;;;;;9.00;83.20;;;;;;5037909;28;19970;-78
2023/04/20 11:12:00;;;;;;;;;;;9.10;83.30;;;;;;5034226;28;19929;-79
2023/04/20 11:14:27;;;;;;;;;;;9.10;83.40;;;;;;5039337;28;19936;-81
2023/04/20 11:16:54;;;;;;;;;;;9.10;83.30;;;;;;5038958;28;19963;-79
2023/04/20 11:19:25;;;;;;;;;;;9.20;83.30;;;;;;5038341;28;19928;-79
2023/04/20 11:21:51;;;;;;;;;;;9.20;83.30;;;;;;5049768;28;19936;-78
2023/04/20 11:24:19;;;;;;;;;;;9.20;83.30;;;;;;5040732;28;20013;-79
2023/04/20 11:26:48;;;;;;;;;;;9.30;83.30;;;;;;5049890;28;19928;-77
2023/04/20 11:29:26;;;;;;;;;;;9.30;83.20;;;;;;5038123;28;19929;-77
2023/04/20 11:31:53;;;;;;;;;;;9.30;83.20;;;;;;5038195;28;19939;-77
2023/04/20 11:34:20;;;;;;;;;;;9.40;83.90;;;;;;5039076;28;19928;-77
2023/04/20 11:36:47;;;;;;;;;;;9.40;82.90;;;;;;5036181;28;19929;-77
2023/04/20 11:39:15;;;;;;;;;;;9.40;82.80;;;;;;5040681;28;20667;-77
2023/04/20 11:41:44;;;;;;;;;;;9.50;82.70;;;;;;5039676;28;19929;-77
2023/04/20 11:44:10;;;;;;;;;;;9.50;82.50;;;;;;5036758;28;19944;-77
2023/04/20 11:46:37;;;;;;;;;;;9.50;82.30;;;;;;5036923;28;19933;-77
2023/04/20 11:49:04;;;;;;;;;;;9.60;82.10;;;;;;5030918;28;19937;-77
2023/04/20 11:51:30;;;;;;;;;;;9.60;82.20;;;;;;5049179;28;20042;-78
2023/04/20 11:56:32;;;;;;;;;;;9.60;82.10;;;;;;5046062;23;19929;-82
2023/04/20 11:59:00;;;;;;;;;;;9.60;82.20;;;;;;5034249;28;20359;-81
2023/04/20 12:20:07;;;;;;;;;;;9.70;81.40;;;;;;5466002;22;20607;-77
2023/04/20 12:22:34;;;;;;;;;;;9.70;81.20;;;;;;5014500;28;19936;-79
2023/04/20 12:25:00;;;;;;;;;;;9.80;81.70;;;;;;5017644;28;19940;-77
2023/04/20 12:27:27;;;;;;;;;;;9.80;81.70;;;;;;5012421;28;19934;-77
2023/04/20 12:29:54;;;;;;;;;;;9.80;81.50;;;;;;5010500;28;20384;-77
2023/04/20 12:32:20;;;;;;;;;;;9.80;81.20;;;;;;5007295;28;20460;-77
2023/04/20 12:34:47;;;;;;;;;;;9.80;81.30;;;;;;5014520;28;20441;-77
2023/04/20 12:37:15;;;;;;;;;;;9.80;81.30;;;;;;5016808;28;20637;-76
2023/04/20 12:39:41;;;;;;;;;;;9.80;81.60;;;;;;5009930;28;19929;-77
2023/04/20 12:42:08;;;;;;;;;;;9.80;81.50;;;;;;5014775;28;19936;-77
2023/04/20 12:44:35;;;;;;;;;;;9.90;81.70;;;;;;5011929;28;19933;-76
2023/04/20 12:47:01;;;;;;;;;;;9.80;81.90;;;;;;5010085;28;19932;-77
2023/04/20 12:49:28;;;;;;;;;;;9.80;82.30;;;;;;5010055;28;20710;-77
2023/04/20 12:51:54;;;;;;;;;;;9.90;82.00;;;;;;5013511;28;19932;-77
2023/04/20 12:54:22;;;;;;;;;;;9.80;82.20;;;;;;5015669;28;19925;-77
2023/04/20 12:56:48;;;;;;;;;;;9.90;82.10;;;;;;5012405;28;19937;-76
2023/04/20 12:59:15;;;;;;;;;;;9.90;81.80;;;;;;5015020;28;20444;-76
2023/04/20 13:01:42;;;;;;;;;;;9.80;82.00;;;;;;5012666;28;19933;-77
2023/04/20 13:04:08;;;;;;;;;;;9.90;82.10;;;;;;5010693;28;19940;-77
2023/04/20 13:06:35;;;;;;;;;;;9.90;82.20;;;;;;5013118;28;19933;-75
2023/04/20 13:09:02;;;;;;;;;;;9.90;82.90;;;;;;5014434;28;20663;-78
2023/04/20 13:11:30;;;;;;;;;;;9.90;83.30;;;;;;5014144;28;20417;-78
2023/04/20 13:13:57;;;;;;;;;;;9.90;83.10;;;;;;5014442;28;19936;-75
2023/04/20 13:16:23;;;;;;;;;;;9.90;83.70;;;;;;5011583;28;20346;-78
2023/04/20 13:18:50;;;;;;;;;;;9.90;84.20;;;;;;5014052;28;19928;-78
2023/04/20 13:21:17;;;;;;;;;;;9.80;84.20;;;;;;5015789;28;19925;-77
2023/04/20 13:23:43;;;;;;;;;;;9.90;84.50;;;;;;5010668;28;19925;-76
2023/04/20 13:26:10;;;;;;;;;;;9.90;84.20;;;;;;5010450;28;19925;-76
2023/04/20 13:28:38;;;;;;;;;;;9.80;83.80;;;;;;5009479;28;19934;-76
2023/04/20 13:31:04;;;;;;;;;;;9.90;84.40;;;;;;5011539;28;19929;-76
2023/04/20 13:33:32;;;;;;;;;;;9.80;84.40;;;;;;5016767;28;19984;-78
2023/04/20 13:35:58;;;;;;;;;;;9.80;84.90;;;;;;5021243;28;19933;-79
2023/04/20 13:38:25;;;;;;;;;;;9.80;84.60;;;;;;5019126;28;19925;-79
2023/04/20 13:40:53;;;;;;;;;;;9.80;84.90;;;;;;5023045;28;21206;-77
2023/04/20 13:43:20;;;;;;;;;;;9.80;85.30;;;;;;5015993;28;19925;-78
2023/04/20 13:45:48;;;;;;;;;;;9.80;85.10;;;;;;5010897;28;19940;-78
2023/04/20 13:48:14;;;;;;;;;;;9.80;85.30;;;;;;5008295;28;20451;-79
2023/04/20 13:50:41;;;;;;;;;;;9.80;85.70;;;;;;5014794;28;20728;-78
2023/04/20 13:53:07;;;;;;;;;;;9.80;85.60;;;;;;5023592;28;20402;-81
2023/04/20 13:55:34;;;;;;;;;;;9.80;85.60;;;;;;5005523;28;19933;-81
2023/04/20 13:58:01;;;;;;;;;;;9.80;85.60;;;;;;5005428;28;20156;-78
2023/04/20 14:00:27;;;;;;;;;;;9.80;85.80;;;;;;5012678;28;19929;-79
2023/04/20 14:02:55;;;;;;;;;;;9.80;85.80;;;;;;5011872;28;19925;-78
2023/04/20 14:05:22;;;;;;;;;;;9.80;85.90;;;;;;5013999;28;19937;-79
2023/04/20 14:07:48;;;;;;;;;;;9.80;85.70;;;;;;5009908;28;19929;-77
2023/04/20 14:10:15;;;;;;;;;;;9.80;85.80;;;;;;5011476;28;19933;-79
2023/04/20 14:12:41;;;;;;;;;;;9.80;85.90;;;;;;5009128;28;19940;-78
2023/04/20 14:15:08;;;;;;;;;;;9.80;85.80;;;;;;5013428;28;19929;-78
2023/04/20 14:17:35;;;;;;;;;;;9.70;85.50;;;;;;5015385;28;20330;-78
2023/04/20 14:20:03;;;;;;;;;;;9.80;85.50;;;;;;5013077;28;20020;-78
2023/04/20 14:22:34;;;;;;;;;;;9.80;85.50;;;;;;5018947;28;21370;-78
2023/04/20 14:25:01;;;;;;;;;;;9.70;85.80;;;;;;5021282;28;20048;-77
2023/04/20 14:27:27;;;;;;;;;;;9.70;85.50;;;;;;5016194;28;19944;-78
2023/04/20 14:29:55;;;;;;;;;;;9.70;85.80;;;;;;5017028;28;19936;-78
2023/04/20 14:32:21;;;;;;;;;;;9.70;86.00;;;;;;5018239;28;19928;-77
2023/04/20 14:34:48;;;;;;;;;;;9.70;85.80;;;;;;5015314;28;19929;-78
2023/04/20 14:37:16;;;;;;;;;;;9.70;85.80;;;;;;5017842;28;19929;-78
2023/04/20 14:39:42;;;;;;;;;;;9.70;86.10;;;;;;5018601;28;19936;-78
2023/04/20 14:42:09;;;;;;;;;;;9.70;86.00;;;;;;5015720;28;19940;-78
2023/04/20 14:44:35;;;;;;;;;;;9.70;86.00;;;;;;5017318;28;19933;-78
2023/04/20 14:47:02;;;;;;;;;;;9.70;86.00;;;;;;5010254;28;19933;-78
2023/04/20 14:49:29;;;;;;;;;;;9.70;85.90;;;;;;5020645;28;20027;-76
2023/04/20 14:51:55;;;;;;;;;;;9.70;85.60;;;;;;5022737;28;19933;-78